sensor_id;sensor_type;location;lat;lon;timestamp;P1;durP1;ratioP1;P2;durP2;ratioP2
8665;SDS011;4370;48.916;8.380;2022-12-24T00:02:13;8.60;;;2.40;;
8665;SDS011;4370;48.916;8.380;2022-12-24T00:04:39;6.90;;;2.17;;
8665;SDS011;4370;48.916;8.380;2022-12-24T00:07:05;9.60;;;2.20;;
8665;SDS011;4370;48.916;8.380;2022-12-24T00:09:31;8.77;;;2.53;;
8665;SDS011;4370;48.916;8.380;2022-12-24T00:11:57;14.43;;;2.57;;
8665;SDS011;4370;48.916;8.380;2022-12-24T00:14:23;10.00;;;2.23;;
8665;SDS011;4370;48.916;8.380;2022-12-24T00:16:49;10.43;;;2.30;;
8665;SDS011;4370;48.916;8.380;2022-12-24T00:19:15;10.70;;;2.87;;
8665;SDS011;4370;48.916;8.380;2022-12-24T00:21:41;8.03;;;2.23;;
8665;SDS011;4370;48.916;8.380;2022-12-24T00:24:07;9.97;;;2.30;;
8665;SDS011;4370;48.916;8.380;2022-12-24T00:26:33;10.07;;;2.60;;
8665;SDS011;4370;48.916;8.380;2022-12-24T00:28:59;9.87;;;2.93;;
8665;SDS011;4370;48.916;8.380;2022-12-24T00:31:25;14.53;;;2.90;;
8665;SDS011;4370;48.916;8.380;2022-12-24T00:33:51;14.20;;;3.07;;
8665;SDS011;4370;48.916;8.380;2022-12-24T00:36:17;17.57;;;4.43;;
8665;SDS011;4370;48.916;8.380;2022-12-24T00:38:43;14.37;;;4.60;;
8665;SDS011;4370;48.916;8.380;2022-12-24T00:41:10;14.17;;;3.87;;
8665;SDS011;4370;48.916;8.380;2022-12-24T00:43:50;13.27;;;4.67;;
8665;SDS011;4370;48.916;8.380;2022-12-24T00:46:16;19.93;;;6.23;;
8665;SDS011;4370;48.916;8.380;2022-12-24T00:48:42;22.60;;;8.60;;
8665;SDS011;4370;48.916;8.380;2022-12-24T00:51:08;21.73;;;7.47;;
8665;SDS011;4370;48.916;8.380;2022-12-24T00:53:34;33.00;;;14.13;;
8665;SDS011;4370;48.916;8.380;2022-12-24T00:56:00;31.47;;;12.33;;
8665;SDS011;4370;48.916;8.380;2022-12-24T00:58:26;18.57;;;7.60;;
8665;SDS011;4370;48.916;8.380;2022-12-24T01:00:52;17.60;;;6.17;;
8665;SDS011;4370;48.916;8.380;2022-12-24T01:03:18;12.80;;;4.23;;
8665;SDS011;4370;48.916;8.380;2022-12-24T01:05:43;16.90;;;4.30;;
8665;SDS011;4370;48.916;8.380;2022-12-24T01:08:09;10.20;;;2.87;;
8665;SDS011;4370;48.916;8.380;2022-12-24T01:10:35;16.03;;;3.10;;
8665;SDS011;4370;48.916;8.380;2022-12-24T01:13:01;12.83;;;3.47;;
8665;SDS011;4370;48.916;8.380;2022-12-24T01:15:27;11.07;;;3.33;;
8665;SDS011;4370;48.916;8.380;2022-12-24T01:17:53;12.63;;;2.87;;
8665;SDS011;4370;48.916;8.380;2022-12-24T01:20:19;11.93;;;2.80;;
8665;SDS011;4370;48.916;8.380;2022-12-24T01:22:45;16.77;;;2.97;;
8665;SDS011;4370;48.916;8.380;2022-12-24T01:25:12;12.07;;;3.00;;
8665;SDS011;4370;48.916;8.380;2022-12-24T01:27:38;14.37;;;3.43;;
8665;SDS011;4370;48.916;8.380;2022-12-24T01:30:05;14.03;;;3.20;;
8665;SDS011;4370;48.916;8.380;2022-12-24T01:32:33;15.30;;;3.70;;
8665;SDS011;4370;48.916;8.380;2022-12-24T01:34:59;14.53;;;2.73;;
8665;SDS011;4370;48.916;8.380;2022-12-24T01:37:25;15.40;;;2.93;;
8665;SDS011;4370;48.916;8.380;2022-12-24T01:39:51;9.83;;;2.80;;
8665;SDS011;4370;48.916;8.380;2022-12-24T01:42:37;13.23;;;2.43;;
8665;SDS011;4370;48.916;8.380;2022-12-24T01:48:30;8.83;;;2.50;;
8665;SDS011;4370;48.916;8.380;2022-12-24T01:53:37;6.03;;;2.17;;
8665;SDS011;4370;48.916;8.380;2022-12-24T01:56:04;7.47;;;2.30;;
8665;SDS011;4370;48.916;8.380;2022-12-24T01:58:31;7.87;;;2.40;;
8665;SDS011;4370;48.916;8.380;2022-12-24T02:00:58;9.17;;;2.43;;
8665;SDS011;4370;48.916;8.380;2022-12-24T02:03:24;5.37;;;2.30;;
8665;SDS011;4370;48.916;8.380;2022-12-24T02:05:53;5.27;;;2.30;;
8665;SDS011;4370;48.916;8.380;2022-12-24T02:08:22;6.27;;;2.57;;
8665;SDS011;4370;48.916;8.380;2022-12-24T02:10:48;15.23;;;3.00;;
8665;SDS011;4370;48.916;8.380;2022-12-24T02:13:15;11.23;;;3.00;;
8665;SDS011;4370;48.916;8.380;2022-12-24T02:15:48;15.07;;;3.23;;
8665;SDS011;4370;48.916;8.380;2022-12-24T02:18:25;19.57;;;3.87;;
8665;SDS011;4370;48.916;8.380;2022-12-24T02:21:22;14.93;;;3.43;;
8665;SDS011;4370;48.916;8.380;2022-12-24T02:24:20;14.83;;;2.80;;
8665;SDS011;4370;48.916;8.380;2022-12-24T02:27:01;15.30;;;3.00;;
8665;SDS011;4370;48.916;8.380;2022-12-24T02:29:54;13.20;;;3.37;;
8665;SDS011;4370;48.916;8.380;2022-12-24T02:35:16;13.87;;;3.70;;
8665;SDS011;4370;48.916;8.380;2022-12-24T02:37:43;11.83;;;2.67;;
8665;SDS011;4370;48.916;8.380;2022-12-24T02:40:22;12.27;;;3.47;;
8665;SDS011;4370;48.916;8.380;2022-12-24T02:42:56;18.80;;;3.33;;
8665;SDS011;4370;48.916;8.380;2022-12-24T02:45:30;16.10;;;3.13;;
8665;SDS011;4370;48.916;8.380;2022-12-24T02:47:57;10.77;;;3.17;;
8665;SDS011;4370;48.916;8.380;2022-12-24T02:50:23;12.50;;;3.70;;
8665;SDS011;4370;48.916;8.380;2022-12-24T02:52:49;9.07;;;2.73;;
8665;SDS011;4370;48.916;8.380;2022-12-24T03:01:01;14.30;;;3.33;;
8665;SDS011;4370;48.916;8.380;2022-12-24T03:03:55;13.30;;;2.93;;
8665;SDS011;4370;48.916;8.380;2022-12-24T03:12:14;12.40;;;2.70;;
8665;SDS011;4370;48.916;8.380;2022-12-24T03:14:44;7.83;;;2.80;;
8665;SDS011;4370;48.916;8.380;2022-12-24T03:17:12;8.57;;;2.77;;
8665;SDS011;4370;48.916;8.380;2022-12-24T03:19:39;8.17;;;2.50;;
8665;SDS011;4370;48.916;8.380;2022-12-24T03:22:06;13.37;;;2.90;;
8665;SDS011;4370;48.916;8.380;2022-12-24T03:24:34;10.67;;;2.87;;
8665;SDS011;4370;48.916;8.380;2022-12-24T03:27:00;12.93;;;2.73;;
8665;SDS011;4370;48.916;8.380;2022-12-24T03:29:27;15.20;;;2.90;;
8665;SDS011;4370;48.916;8.380;2022-12-24T03:31:57;10.73;;;2.87;;
8665;SDS011;4370;48.916;8.380;2022-12-24T03:34:25;13.23;;;3.23;;
8665;SDS011;4370;48.916;8.380;2022-12-24T03:36:51;11.17;;;2.67;;
8665;SDS011;4370;48.916;8.380;2022-12-24T03:39:17;10.03;;;2.60;;
8665;SDS011;4370;48.916;8.380;2022-12-24T03:41:43;16.80;;;3.70;;
8665;SDS011;4370;48.916;8.380;2022-12-24T03:44:09;15.20;;;3.57;;
8665;SDS011;4370;48.916;8.380;2022-12-24T03:46:35;8.77;;;2.90;;
8665;SDS011;4370;48.916;8.380;2022-12-24T03:49:00;11.73;;;2.60;;
8665;SDS011;4370;48.916;8.380;2022-12-24T03:51:27;6.60;;;2.53;;
8665;SDS011;4370;48.916;8.380;2022-12-24T03:53:54;8.47;;;2.20;;
8665;SDS011;4370;48.916;8.380;2022-12-24T03:56:21;6.03;;;2.47;;
8665;SDS011;4370;48.916;8.380;2022-12-24T03:58:47;11.13;;;2.90;;
8665;SDS011;4370;48.916;8.380;2022-12-24T04:01:13;7.23;;;2.37;;
8665;SDS011;4370;48.916;8.380;2022-12-24T04:03:39;10.20;;;2.57;;
8665;SDS011;4370;48.916;8.380;2022-12-24T04:06:06;10.27;;;3.00;;
8665;SDS011;4370;48.916;8.380;2022-12-24T04:08:34;7.87;;;2.23;;
8665;SDS011;4370;48.916;8.380;2022-12-24T04:11:00;8.20;;;2.33;;
8665;SDS011;4370;48.916;8.380;2022-12-24T04:13:26;9.80;;;2.43;;
8665;SDS011;4370;48.916;8.380;2022-12-24T04:15:58;12.80;;;3.07;;
8665;SDS011;4370;48.916;8.380;2022-12-24T04:18:25;10.17;;;2.70;;
8665;SDS011;4370;48.916;8.380;2022-12-24T04:20:51;15.40;;;3.20;;
8665;SDS011;4370;48.916;8.380;2022-12-24T04:23:17;17.10;;;3.50;;
8665;SDS011;4370;48.916;8.380;2022-12-24T04:25:43;19.20;;;3.13;;
8665;SDS011;4370;48.916;8.380;2022-12-24T04:28:09;18.70;;;3.07;;
8665;SDS011;4370;48.916;8.380;2022-12-24T04:30:37;16.40;;;3.13;;
8665;SDS011;4370;48.916;8.380;2022-12-24T04:33:03;14.40;;;3.53;;
8665;SDS011;4370;48.916;8.380;2022-12-24T04:35:29;14.57;;;3.27;;
8665;SDS011;4370;48.916;8.380;2022-12-24T04:37:54;18.27;;;3.27;;
8665;SDS011;4370;48.916;8.380;2022-12-24T04:40:20;12.57;;;2.73;;
8665;SDS011;4370;48.916;8.380;2022-12-24T04:42:46;14.80;;;2.87;;
8665;SDS011;4370;48.916;8.380;2022-12-24T04:45:12;13.90;;;3.13;;
8665;SDS011;4370;48.916;8.380;2022-12-24T04:47:38;10.70;;;2.93;;
8665;SDS011;4370;48.916;8.380;2022-12-24T04:50:04;17.73;;;3.27;;
8665;SDS011;4370;48.916;8.380;2022-12-24T04:52:30;17.97;;;2.97;;
8665;SDS011;4370;48.916;8.380;2022-12-24T04:54:56;19.97;;;3.10;;
8665;SDS011;4370;48.916;8.380;2022-12-24T04:57:21;16.13;;;3.53;;
8665;SDS011;4370;48.916;8.380;2022-12-24T04:59:47;13.27;;;2.87;;
8665;SDS011;4370;48.916;8.380;2022-12-24T05:02:13;11.63;;;3.00;;
8665;SDS011;4370;48.916;8.380;2022-12-24T05:04:39;21.23;;;3.63;;
8665;SDS011;4370;48.916;8.380;2022-12-24T05:07:05;10.67;;;3.07;;
8665;SDS011;4370;48.916;8.380;2022-12-24T05:09:31;19.27;;;3.33;;
8665;SDS011;4370;48.916;8.380;2022-12-24T05:11:56;13.80;;;3.00;;
8665;SDS011;4370;48.916;8.380;2022-12-24T05:14:22;15.70;;;3.37;;
8665;SDS011;4370;48.916;8.380;2022-12-24T05:16:48;22.60;;;3.90;;
8665;SDS011;4370;48.916;8.380;2022-12-24T05:19:14;13.67;;;3.20;;
8665;SDS011;4370;48.916;8.380;2022-12-24T05:21:40;14.47;;;2.80;;
8665;SDS011;4370;48.916;8.380;2022-12-24T05:24:06;15.13;;;3.17;;
8665;SDS011;4370;48.916;8.380;2022-12-24T05:26:54;11.93;;;3.00;;
8665;SDS011;4370;48.916;8.380;2022-12-24T05:29:21;14.00;;;2.90;;
8665;SDS011;4370;48.916;8.380;2022-12-24T05:31:47;12.50;;;2.90;;
8665;SDS011;4370;48.916;8.380;2022-12-24T05:34:15;22.73;;;3.87;;
8665;SDS011;4370;48.916;8.380;2022-12-24T05:36:41;12.33;;;2.80;;
8665;SDS011;4370;48.916;8.380;2022-12-24T05:39:09;22.33;;;3.73;;
8665;SDS011;4370;48.916;8.380;2022-12-24T05:41:38;17.63;;;3.20;;
8665;SDS011;4370;48.916;8.380;2022-12-24T05:44:04;15.77;;;3.23;;
8665;SDS011;4370;48.916;8.380;2022-12-24T05:46:29;19.23;;;3.27;;
8665;SDS011;4370;48.916;8.380;2022-12-24T05:48:55;10.47;;;2.97;;
8665;SDS011;4370;48.916;8.380;2022-12-24T05:51:21;15.43;;;3.00;;
8665;SDS011;4370;48.916;8.380;2022-12-24T05:53:48;7.77;;;2.50;;
8665;SDS011;4370;48.916;8.380;2022-12-24T05:56:16;13.10;;;2.57;;
8665;SDS011;4370;48.916;8.380;2022-12-24T05:58:44;8.63;;;2.50;;
8665;SDS011;4370;48.916;8.380;2022-12-24T06:01:10;8.50;;;3.00;;
8665;SDS011;4370;48.916;8.380;2022-12-24T06:03:37;16.40;;;3.10;;
8665;SDS011;4370;48.916;8.380;2022-12-24T06:06:04;15.07;;;3.37;;
8665;SDS011;4370;48.916;8.380;2022-12-24T06:08:43;15.53;;;2.83;;
8665;SDS011;4370;48.916;8.380;2022-12-24T06:11:10;11.03;;;3.10;;
8665;SDS011;4370;48.916;8.380;2022-12-24T06:13:37;14.00;;;2.90;;
8665;SDS011;4370;48.916;8.380;2022-12-24T06:16:04;10.20;;;2.67;;
8665;SDS011;4370;48.916;8.380;2022-12-24T06:18:31;19.03;;;3.33;;
8665;SDS011;4370;48.916;8.380;2022-12-24T06:20:58;15.80;;;3.40;;
8665;SDS011;4370;48.916;8.380;2022-12-24T06:23:24;12.07;;;3.17;;
8665;SDS011;4370;48.916;8.380;2022-12-24T06:25:51;12.83;;;3.43;;
8665;SDS011;4370;48.916;8.380;2022-12-24T06:28:17;11.33;;;2.87;;
8665;SDS011;4370;48.916;8.380;2022-12-24T06:30:46;12.93;;;3.10;;
8665;SDS011;4370;48.916;8.380;2022-12-24T06:33:13;17.87;;;3.10;;
8665;SDS011;4370;48.916;8.380;2022-12-24T06:35:39;11.20;;;2.87;;
8665;SDS011;4370;48.916;8.380;2022-12-24T06:38:05;12.40;;;3.00;;
8665;SDS011;4370;48.916;8.380;2022-12-24T06:40:31;13.03;;;2.53;;
8665;SDS011;4370;48.916;8.380;2022-12-24T06:42:57;16.90;;;3.10;;
8665;SDS011;4370;48.916;8.380;2022-12-24T06:45:23;9.13;;;2.60;;
8665;SDS011;4370;48.916;8.380;2022-12-24T06:47:49;7.50;;;1.90;;
8665;SDS011;4370;48.916;8.380;2022-12-24T06:50:14;9.23;;;2.33;;
8665;SDS011;4370;48.916;8.380;2022-12-24T06:52:40;14.47;;;3.10;;
8665;SDS011;4370;48.916;8.380;2022-12-24T06:55:06;7.50;;;2.17;;
8665;SDS011;4370;48.916;8.380;2022-12-24T06:57:32;10.40;;;2.70;;
8665;SDS011;4370;48.916;8.380;2022-12-24T06:59:58;10.63;;;2.43;;
8665;SDS011;4370;48.916;8.380;2022-12-24T07:02:24;11.63;;;2.80;;
8665;SDS011;4370;48.916;8.380;2022-12-24T07:04:50;13.43;;;2.20;;
8665;SDS011;4370;48.916;8.380;2022-12-24T07:07:15;9.53;;;2.70;;
8665;SDS011;4370;48.916;8.380;2022-12-24T07:09:41;6.73;;;2.13;;
8665;SDS011;4370;48.916;8.380;2022-12-24T07:12:07;6.80;;;1.90;;
8665;SDS011;4370;48.916;8.380;2022-12-24T07:14:33;6.13;;;2.40;;
8665;SDS011;4370;48.916;8.380;2022-12-24T07:16:59;6.67;;;2.30;;
8665;SDS011;4370;48.916;8.380;2022-12-24T07:19:25;10.80;;;2.43;;
8665;SDS011;4370;48.916;8.380;2022-12-24T07:21:51;5.50;;;2.10;;
8665;SDS011;4370;48.916;8.380;2022-12-24T07:24:17;6.60;;;2.50;;
8665;SDS011;4370;48.916;8.380;2022-12-24T07:26:44;6.63;;;2.53;;
8665;SDS011;4370;48.916;8.380;2022-12-24T07:29:10;10.37;;;2.47;;
8665;SDS011;4370;48.916;8.380;2022-12-24T07:31:35;8.67;;;2.50;;
8665;SDS011;4370;48.916;8.380;2022-12-24T07:34:01;7.57;;;2.60;;
8665;SDS011;4370;48.916;8.380;2022-12-24T07:36:27;12.93;;;3.37;;
8665;SDS011;4370;48.916;8.380;2022-12-24T07:38:53;8.00;;;2.70;;
8665;SDS011;4370;48.916;8.380;2022-12-24T07:41:20;14.57;;;3.20;;
8665;SDS011;4370;48.916;8.380;2022-12-24T07:43:46;12.83;;;3.57;;
8665;SDS011;4370;48.916;8.380;2022-12-24T07:46:12;12.43;;;4.57;;
8665;SDS011;4370;48.916;8.380;2022-12-24T07:48:38;12.00;;;3.63;;
8665;SDS011;4370;48.916;8.380;2022-12-24T07:51:03;13.50;;;4.10;;
8665;SDS011;4370;48.916;8.380;2022-12-24T07:53:29;11.67;;;4.23;;
8665;SDS011;4370;48.916;8.380;2022-12-24T07:55:55;9.87;;;3.70;;
8665;SDS011;4370;48.916;8.380;2022-12-24T07:58:21;9.33;;;3.50;;
8665;SDS011;4370;48.916;8.380;2022-12-24T08:00:48;14.03;;;4.00;;
8665;SDS011;4370;48.916;8.380;2022-12-24T08:03:17;17.20;;;4.50;;
8665;SDS011;4370;48.916;8.380;2022-12-24T08:05:44;17.57;;;4.27;;
8665;SDS011;4370;48.916;8.380;2022-12-24T08:08:10;13.10;;;4.23;;
8665;SDS011;4370;48.916;8.380;2022-12-24T08:10:40;13.37;;;3.87;;
8665;SDS011;4370;48.916;8.380;2022-12-24T08:13:07;14.20;;;4.37;;
8665;SDS011;4370;48.916;8.380;2022-12-24T08:15:33;17.07;;;3.70;;
8665;SDS011;4370;48.916;8.380;2022-12-24T08:17:59;11.40;;;4.63;;
8665;SDS011;4370;48.916;8.380;2022-12-24T08:20:25;19.50;;;6.43;;
8665;SDS011;4370;48.916;8.380;2022-12-24T08:22:51;22.13;;;6.23;;
8665;SDS011;4370;48.916;8.380;2022-12-24T08:25:17;16.87;;;4.53;;
8665;SDS011;4370;48.916;8.380;2022-12-24T08:27:44;16.03;;;3.80;;
8665;SDS011;4370;48.916;8.380;2022-12-24T08:30:10;13.87;;;3.47;;
8665;SDS011;4370;48.916;8.380;2022-12-24T08:32:36;14.10;;;4.57;;
8665;SDS011;4370;48.916;8.380;2022-12-24T08:35:02;13.00;;;3.20;;
8665;SDS011;4370;48.916;8.380;2022-12-24T08:37:28;11.73;;;3.20;;
8665;SDS011;4370;48.916;8.380;2022-12-24T08:39:54;18.53;;;3.80;;
8665;SDS011;4370;48.916;8.380;2022-12-24T08:42:20;10.77;;;3.50;;
8665;SDS011;4370;48.916;8.380;2022-12-24T08:44:45;10.43;;;3.40;;
8665;SDS011;4370;48.916;8.380;2022-12-24T08:47:11;8.37;;;3.00;;
8665;SDS011;4370;48.916;8.380;2022-12-24T08:49:37;11.87;;;3.00;;
8665;SDS011;4370;48.916;8.380;2022-12-24T08:52:04;9.80;;;3.40;;
8665;SDS011;4370;48.916;8.380;2022-12-24T08:54:29;11.93;;;4.00;;
8665;SDS011;4370;48.916;8.380;2022-12-24T08:56:55;7.63;;;2.60;;
8665;SDS011;4370;48.916;8.380;2022-12-24T08:59:21;9.23;;;3.23;;
8665;SDS011;4370;48.916;8.380;2022-12-24T09:01:47;9.50;;;3.33;;
8665;SDS011;4370;48.916;8.380;2022-12-24T09:04:13;11.93;;;2.93;;
8665;SDS011;4370;48.916;8.380;2022-12-24T09:06:38;17.57;;;3.83;;
8665;SDS011;4370;48.916;8.380;2022-12-24T09:09:04;10.40;;;3.23;;
8665;SDS011;4370;48.916;8.380;2022-12-24T09:11:30;9.67;;;2.70;;
8665;SDS011;4370;48.916;8.380;2022-12-24T09:13:58;7.53;;;2.90;;
8665;SDS011;4370;48.916;8.380;2022-12-24T09:16:24;8.37;;;2.77;;
8665;SDS011;4370;48.916;8.380;2022-12-24T09:18:50;13.37;;;2.63;;
8665;SDS011;4370;48.916;8.380;2022-12-24T09:21:16;11.33;;;2.80;;
8665;SDS011;4370;48.916;8.380;2022-12-24T09:23:44;15.00;;;3.80;;
8665;SDS011;4370;48.916;8.380;2022-12-24T09:26:21;15.87;;;3.87;;
8665;SDS011;4370;48.916;8.380;2022-12-24T09:28:48;15.83;;;3.50;;
8665;SDS011;4370;48.916;8.380;2022-12-24T09:31:14;15.97;;;3.40;;
8665;SDS011;4370;48.916;8.380;2022-12-24T09:33:41;15.23;;;3.83;;
8665;SDS011;4370;48.916;8.380;2022-12-24T09:36:08;20.50;;;4.10;;
8665;SDS011;4370;48.916;8.380;2022-12-24T09:38:34;22.07;;;4.20;;
8665;SDS011;4370;48.916;8.380;2022-12-24T09:41:00;16.60;;;3.90;;
8665;SDS011;4370;48.916;8.380;2022-12-24T09:43:35;14.60;;;4.10;;
8665;SDS011;4370;48.916;8.380;2022-12-24T09:48:27;17.40;;;3.10;;
8665;SDS011;4370;48.916;8.380;2022-12-24T09:51:08;16.67;;;3.30;;
8665;SDS011;4370;48.916;8.380;2022-12-24T09:53:47;17.17;;;4.27;;
8665;SDS011;4370;48.916;8.380;2022-12-24T09:56:25;16.87;;;3.60;;
8665;SDS011;4370;48.916;8.380;2022-12-24T10:01:24;9.60;;;3.10;;
8665;SDS011;4370;48.916;8.380;2022-12-24T10:03:50;14.17;;;3.10;;
8665;SDS011;4370;48.916;8.380;2022-12-24T10:06:22;11.27;;;3.53;;
8665;SDS011;4370;48.916;8.380;2022-12-24T10:12:00;9.73;;;3.10;;
8665;SDS011;4370;48.916;8.380;2022-12-24T10:14:50;9.43;;;3.57;;
8665;SDS011;4370;48.916;8.380;2022-12-24T10:22:58;10.27;;;3.50;;
8665;SDS011;4370;48.916;8.380;2022-12-24T10:25:57;18.37;;;4.67;;
8665;SDS011;4370;48.916;8.380;2022-12-24T10:28:42;17.03;;;5.30;;
8665;SDS011;4370;48.916;8.380;2022-12-24T10:31:16;16.00;;;4.40;;
8665;SDS011;4370;48.916;8.380;2022-12-24T10:33:46;13.87;;;4.30;;
8665;SDS011;4370;48.916;8.380;2022-12-24T10:36:17;11.00;;;3.83;;
8665;SDS011;4370;48.916;8.380;2022-12-24T10:38:47;11.47;;;3.90;;
8665;SDS011;4370;48.916;8.380;2022-12-24T10:41:13;11.10;;;3.87;;
8665;SDS011;4370;48.916;8.380;2022-12-24T10:43:40;14.53;;;4.67;;
8665;SDS011;4370;48.916;8.380;2022-12-24T10:46:11;11.93;;;4.27;;
8665;SDS011;4370;48.916;8.380;2022-12-24T10:51:52;17.93;;;4.23;;
8665;SDS011;4370;48.916;8.380;2022-12-24T10:54:23;11.40;;;3.50;;
8665;SDS011;4370;48.916;8.380;2022-12-24T10:56:51;17.57;;;5.00;;
8665;SDS011;4370;48.916;8.380;2022-12-24T10:59:48;19.67;;;5.00;;
8665;SDS011;4370;48.916;8.380;2022-12-24T11:05:03;19.53;;;4.40;;
8665;SDS011;4370;48.916;8.380;2022-12-24T11:07:53;17.10;;;4.50;;
8665;SDS011;4370;48.916;8.380;2022-12-24T11:10:25;18.60;;;4.87;;
8665;SDS011;4370;48.916;8.380;2022-12-24T11:12:51;15.73;;;4.60;;
8665;SDS011;4370;48.916;8.380;2022-12-24T11:15:18;18.40;;;4.33;;
8665;SDS011;4370;48.916;8.380;2022-12-24T11:17:53;16.63;;;4.03;;
8665;SDS011;4370;48.916;8.380;2022-12-24T11:20:25;17.47;;;4.50;;
8665;SDS011;4370;48.916;8.380;2022-12-24T11:22:52;13.40;;;3.90;;
8665;SDS011;4370;48.916;8.380;2022-12-24T11:25:19;17.40;;;3.93;;
8665;SDS011;4370;48.916;8.380;2022-12-24T11:27:47;14.87;;;4.20;;
8665;SDS011;4370;48.916;8.380;2022-12-24T11:35:07;13.83;;;3.77;;
8665;SDS011;4370;48.916;8.380;2022-12-24T11:37:39;8.83;;;3.57;;
8665;SDS011;4370;48.916;8.380;2022-12-24T11:40:05;9.20;;;3.87;;
8665;SDS011;4370;48.916;8.380;2022-12-24T11:42:47;10.00;;;4.03;;
8665;SDS011;4370;48.916;8.380;2022-12-24T11:45:25;11.23;;;3.90;;
8665;SDS011;4370;48.916;8.380;2022-12-24T11:47:53;9.20;;;3.70;;
8665;SDS011;4370;48.916;8.380;2022-12-24T11:50:30;12.17;;;4.00;;
8665;SDS011;4370;48.916;8.380;2022-12-24T12:00:41;14.43;;;4.70;;
8665;SDS011;4370;48.916;8.380;2022-12-24T12:03:13;17.20;;;4.47;;
8665;SDS011;4370;48.916;8.380;2022-12-24T12:05:58;16.47;;;4.43;;
8665;SDS011;4370;48.916;8.380;2022-12-24T12:08:25;15.90;;;4.03;;
8665;SDS011;4370;48.916;8.380;2022-12-24T12:10:52;14.47;;;3.50;;
8665;SDS011;4370;48.916;8.380;2022-12-24T12:13:26;17.37;;;3.50;;
8665;SDS011;4370;48.916;8.380;2022-12-24T12:16:17;17.40;;;3.90;;
8665;SDS011;4370;48.916;8.380;2022-12-24T12:18:59;18.93;;;3.30;;
8665;SDS011;4370;48.916;8.380;2022-12-24T12:21:36;11.13;;;2.70;;
8665;SDS011;4370;48.916;8.380;2022-12-24T12:24:10;9.47;;;2.47;;
8665;SDS011;4370;48.916;8.380;2022-12-24T12:26:39;11.17;;;2.90;;
8665;SDS011;4370;48.916;8.380;2022-12-24T12:31:36;9.23;;;2.60;;
8665;SDS011;4370;48.916;8.380;2022-12-24T12:34:10;7.93;;;2.30;;
8665;SDS011;4370;48.916;8.380;2022-12-24T12:36:45;11.03;;;2.97;;
8665;SDS011;4370;48.916;8.380;2022-12-24T12:39:21;9.63;;;2.67;;
8665;SDS011;4370;48.916;8.380;2022-12-24T12:44:16;7.83;;;2.30;;
8665;SDS011;4370;48.916;8.380;2022-12-24T12:54:59;13.90;;;2.90;;
8665;SDS011;4370;48.916;8.380;2022-12-24T12:57:34;11.63;;;2.97;;
8665;SDS011;4370;48.916;8.380;2022-12-24T13:00:03;13.00;;;3.53;;
8665;SDS011;4370;48.916;8.380;2022-12-24T13:13:00;10.37;;;2.97;;
8665;SDS011;4370;48.916;8.380;2022-12-24T13:18:31;12.40;;;3.90;;
8665;SDS011;4370;48.916;8.380;2022-12-24T13:21:00;11.53;;;2.73;;
8665;SDS011;4370;48.916;8.380;2022-12-24T13:23:26;10.43;;;2.63;;
8665;SDS011;4370;48.916;8.380;2022-12-24T13:25:53;9.80;;;3.10;;
8665;SDS011;4370;48.916;8.380;2022-12-24T13:30:49;14.67;;;3.63;;
8665;SDS011;4370;48.916;8.380;2022-12-24T13:36:04;18.10;;;3.40;;
8665;SDS011;4370;48.916;8.380;2022-12-24T13:38:33;14.63;;;3.13;;
8665;SDS011;4370;48.916;8.380;2022-12-24T13:49:56;9.37;;;2.93;;
8665;SDS011;4370;48.916;8.380;2022-12-24T13:52:26;12.40;;;2.63;;
8665;SDS011;4370;48.916;8.380;2022-12-24T13:57:28;8.53;;;2.67;;
8665;SDS011;4370;48.916;8.380;2022-12-24T14:02:51;7.63;;;2.80;;
8665;SDS011;4370;48.916;8.380;2022-12-24T14:05:33;7.07;;;2.57;;
8665;SDS011;4370;48.916;8.380;2022-12-24T14:08:01;5.17;;;2.60;;
8665;SDS011;4370;48.916;8.380;2022-12-24T14:10:30;6.97;;;2.80;;
8665;SDS011;4370;48.916;8.380;2022-12-24T14:19:00;6.13;;;2.60;;
8665;SDS011;4370;48.916;8.380;2022-12-24T14:21:34;4.03;;;2.07;;
8665;SDS011;4370;48.916;8.380;2022-12-24T14:24:05;6.17;;;2.23;;
8665;SDS011;4370;48.916;8.380;2022-12-24T14:26:44;6.13;;;2.60;;
8665;SDS011;4370;48.916;8.380;2022-12-24T14:29:17;6.07;;;2.50;;
8665;SDS011;4370;48.916;8.380;2022-12-24T14:32:11;7.23;;;3.30;;
8665;SDS011;4370;48.916;8.380;2022-12-24T14:34:39;5.43;;;3.03;;
8665;SDS011;4370;48.916;8.380;2022-12-24T14:37:05;6.57;;;3.20;;
8665;SDS011;4370;48.916;8.380;2022-12-24T14:39:33;7.53;;;3.40;;
8665;SDS011;4370;48.916;8.380;2022-12-24T14:44:42;7.57;;;3.20;;
8665;SDS011;4370;48.916;8.380;2022-12-24T14:52:49;7.43;;;3.03;;
8665;SDS011;4370;48.916;8.380;2022-12-24T14:55:41;5.50;;;3.27;;
8665;SDS011;4370;48.916;8.380;2022-12-24T15:01:02;5.77;;;3.00;;
8665;SDS011;4370;48.916;8.380;2022-12-24T15:03:42;6.23;;;3.23;;
8665;SDS011;4370;48.916;8.380;2022-12-24T15:06:07;5.33;;;2.87;;
8665;SDS011;4370;48.916;8.380;2022-12-24T15:08:43;6.43;;;3.00;;
8665;SDS011;4370;48.916;8.380;2022-12-24T15:11:15;8.20;;;3.40;;
8665;SDS011;4370;48.916;8.380;2022-12-24T15:13:47;6.33;;;3.30;;
8665;SDS011;4370;48.916;8.380;2022-12-24T15:16:22;5.77;;;3.07;;
8665;SDS011;4370;48.916;8.380;2022-12-24T15:18:52;5.07;;;2.83;;
8665;SDS011;4370;48.916;8.380;2022-12-24T15:21:29;5.57;;;3.10;;
8665;SDS011;4370;48.916;8.380;2022-12-24T15:24:01;18.70;;;8.17;;
8665;SDS011;4370;48.916;8.380;2022-12-24T15:26:31;15.17;;;6.37;;
8665;SDS011;4370;48.916;8.380;2022-12-24T15:29:00;10.73;;;6.03;;
8665;SDS011;4370;48.916;8.380;2022-12-24T15:31:27;13.40;;;5.80;;
8665;SDS011;4370;48.916;8.380;2022-12-24T15:33:54;9.87;;;4.53;;
8665;SDS011;4370;48.916;8.380;2022-12-24T15:36:28;7.17;;;4.33;;
8665;SDS011;4370;48.916;8.380;2022-12-24T15:39:00;9.97;;;4.20;;
8665;SDS011;4370;48.916;8.380;2022-12-24T15:41:35;10.10;;;4.13;;
8665;SDS011;4370;48.916;8.380;2022-12-24T15:44:31;11.07;;;4.20;;
8665;SDS011;4370;48.916;8.380;2022-12-24T15:47:00;9.50;;;3.70;;
8665;SDS011;4370;48.916;8.380;2022-12-24T15:49:27;6.67;;;3.57;;
8665;SDS011;4370;48.916;8.380;2022-12-24T15:52:01;7.53;;;3.63;;
8665;SDS011;4370;48.916;8.380;2022-12-24T15:54:29;10.33;;;3.80;;
8665;SDS011;4370;48.916;8.380;2022-12-24T15:56:55;5.70;;;3.73;;
8665;SDS011;4370;48.916;8.380;2022-12-24T15:59:28;7.10;;;3.53;;
8665;SDS011;4370;48.916;8.380;2022-12-24T16:04:46;6.53;;;3.47;;
8665;SDS011;4370;48.916;8.380;2022-12-24T16:07:22;5.90;;;3.37;;
8665;SDS011;4370;48.916;8.380;2022-12-24T16:09:49;5.17;;;3.70;;
8665;SDS011;4370;48.916;8.380;2022-12-24T16:12:17;7.57;;;3.93;;
8665;SDS011;4370;48.916;8.380;2022-12-24T16:14:45;4.40;;;3.37;;
8665;SDS011;4370;48.916;8.380;2022-12-24T16:17:17;6.33;;;3.80;;
8665;SDS011;4370;48.916;8.380;2022-12-24T16:19:52;7.57;;;3.30;;
8665;SDS011;4370;48.916;8.380;2022-12-24T16:22:21;5.97;;;3.63;;
8665;SDS011;4370;48.916;8.380;2022-12-24T16:24:59;6.60;;;3.63;;
8665;SDS011;4370;48.916;8.380;2022-12-24T16:27:26;6.33;;;3.80;;
8665;SDS011;4370;48.916;8.380;2022-12-24T16:29:52;7.37;;;3.80;;
8665;SDS011;4370;48.916;8.380;2022-12-24T16:32:36;4.33;;;3.00;;
8665;SDS011;4370;48.916;8.380;2022-12-24T16:35:04;5.43;;;3.37;;
8665;SDS011;4370;48.916;8.380;2022-12-24T16:37:32;4.23;;;3.00;;
8665;SDS011;4370;48.916;8.380;2022-12-24T16:39:57;5.97;;;3.40;;
8665;SDS011;4370;48.916;8.380;2022-12-24T16:42:24;3.97;;;3.00;;
8665;SDS011;4370;48.916;8.380;2022-12-24T16:45:08;4.77;;;3.20;;
8665;SDS011;4370;48.916;8.380;2022-12-24T16:47:34;4.13;;;3.10;;
8665;SDS011;4370;48.916;8.380;2022-12-24T16:50:02;3.93;;;3.17;;
8665;SDS011;4370;48.916;8.380;2022-12-24T16:52:30;4.13;;;2.87;;
8665;SDS011;4370;48.916;8.380;2022-12-24T16:54:59;4.17;;;3.13;;
8665;SDS011;4370;48.916;8.380;2022-12-24T16:57:25;4.53;;;3.10;;
8665;SDS011;4370;48.916;8.380;2022-12-24T16:59:52;3.57;;;2.80;;
8665;SDS011;4370;48.916;8.380;2022-12-24T17:02:19;3.47;;;2.57;;
8665;SDS011;4370;48.916;8.380;2022-12-24T17:04:46;3.80;;;2.80;;
8665;SDS011;4370;48.916;8.380;2022-12-24T17:07:14;6.87;;;3.30;;
8665;SDS011;4370;48.916;8.380;2022-12-24T17:09:41;5.17;;;3.50;;
8665;SDS011;4370;48.916;8.380;2022-12-24T17:12:08;10.50;;;4.80;;
8665;SDS011;4370;48.916;8.380;2022-12-24T17:14:33;10.37;;;5.57;;
8665;SDS011;4370;48.916;8.380;2022-12-24T17:16:59;8.43;;;5.00;;